This is the latest recevied weather packets stored in our database for station/object KC4QLP. If no packets are shown the sender has not sent any weather packets the latest 10 day(s).
| Time | Temp. | Humidity | Pressure | Rain* | Wind** | Luminosity | Snow |
|---|---|---|---|---|---|---|---|
| 1777442422 | 12.22° C | 60% | 1012 hPa | 0 mm | - | 0 W/m² | - |
| 1777440622 | 12.22° C | 60% | 1012.6 hPa | 0 mm | - | 0 W/m² | - |
| 1777438822 | 12.22° C | 60% | 1012.7 hPa | 0 mm | - | 0 W/m² | - |
| 1777437022 | 12.22° C | 60% | 1012.5 hPa | 0 mm | - | 0 W/m² | - |
| 1777435222 | 12.22° C | 60% | 1012.6 hPa | 0 mm | - | 0 W/m² | - |
| 1777433422 | 12.22° C | 60% | 1012.3 hPa | 0 mm | - | 0 W/m² | - |
| 1777431622 | 12.22° C | 60% | 1011.7 hPa | 0 mm | - | 0 W/m² | - |
| 1777429822 | 12.22° C | 60% | 1011.8 hPa | 0 mm | - | 0 W/m² | - |
| 1777428022 | 12.22° C | 60% | 1012.2 hPa | 0 mm | - | 0 W/m² | - |
| 1777426222 | 12.22° C | 60% | 1012.3 hPa | 0 mm | - | 0 W/m² | - |
| 1777424423 | 12.78° C | 62% | 1012.3 hPa | 0 mm | - | 0 W/m² | - |
| 1777422623 | 13.89° C | 55% | 1011.9 hPa | 0 mm | - | 0 W/m² | - |
| 1777420834 | 15.56° C | 47% | 1012.1 hPa | 0 mm | - | 0 W/m² | - |
| 1777419022 | 16.67° C | 43% | 1011.9 hPa | 0 mm | - | 0 W/m² | - |
| 1777417223 | 17.78° C | 39% | 1011.9 hPa | 0 mm | - | 0 W/m² | - |
| 1777415422 | 18.33° C | 37% | 1011.8 hPa | 0 mm | - | 0 W/m² | - |
| 1777413624 | 18.89° C | 34% | 1012.1 hPa | 0 mm | - | 0 W/m² | - |
| 1777411823 | 19.44° C | 35% | 1012.2 hPa | 0 mm | - | 0 W/m² | - |
| 1777410023 | 19.44° C | 35% | 1012.4 hPa | 0 mm | - | 0 W/m² | - |
| 1777408223 | 19.44° C | 33% | 1012.5 hPa | 0 mm | - | 0 W/m² | - |
| 1777406423 | 20° C | 34% | 1012.5 hPa | 0 mm | - | 0 W/m² | - |
| 1777404623 | 20° C | 33% | 1013.1 hPa | 0 mm | - | 0 W/m² | - |
| 1777402823 | 21.11° C | 31% | 1013.3 hPa | 0 mm | - | 0 W/m² | - |
| 1777401023 | 21.67° C | 31% | 1013.6 hPa | 0 mm | - | 0 W/m² | - |
| 1777399223 | 22.78° C | 31% | 1013.6 hPa | 0 mm | - | 0 W/m² | - |
* Rain latest hour (hover to see other rain measurements)
** Current wind speed in m/s (hover to see current wind gust speed)